Ailey, Georgia
Current Conditions -  °F | °C
As of 9:15 PM on Saturday 22 Nov 2014 (Local Time) from KVDI Reporting Station
Overcast Overcast  
Wind Chill: 57°   Ceiling: 8000
Heat Index: 57°   Visibility: 10mi
Dew Point: 55°   Wind: 7mph
Humidity: 94%   Direction: 70°ENE
Pressure: 30.24"   Gusts: NA
Location:  32.19°N, 82.57°W
Report Text: KVDI 230215Z AUTO 07006KT 10SM OVC080 14/13 A3024 RMK AO2
Loading
Personal Weather Stations






























Interactive Weather Map New forecast layout! Learn more

10-Day Weather Forecast

Advertisements
Track Severe Weather on mobile